地図

経路データ

SID SEASON NUMBER BASIN SUBBASIN NAME ISO_TIME NATURE LAT LON WMO_WIND WMO_PRES WMO_AGENCY TRACK_TYPE DIST2LAND LANDFALL IFLAG USA_AGENCY USA_ATCF_ID USA_LAT USA_LON USA_RECORD USA_STATUS USA_WIND USA_PRES USA_SSHS USA_R34_NE USA_R34_SE USA_R34_SW USA_R34_NW USA_R50_NE USA_R50_SE USA_R50_SW USA_R50_NW USA_R64_NE USA_R64_SE USA_R64_SW USA_R64_NW USA_POCI USA_ROCI USA_RMW USA_EYE TOKYO_LAT TOKYO_LON TOKYO_GRADE TOKYO_WIND TOKYO_PRES TOKYO_R50_DIR TOKYO_R50_LONG TOKYO_R50_SHORT TOKYO_R30_DIR TOKYO_R30_LONG TOKYO_R30_SHORT TOKYO_LAND CMA_LAT CMA_LON CMA_CAT CMA_WIND CMA_PRES HKO_LAT HKO_LON HKO_CAT HKO_WIND HKO_PRES NEWDELHI_LAT NEWDELHI_LON NEWDELHI_GRADE NEWDELHI_WIND NEWDELHI_PRES NEWDELHI_CI NEWDELHI_DP NEWDELHI_POCI REUNION_LAT REUNION_LON REUNION_TYPE REUNION_WIND REUNION_PRES REUNION_TNUM REUNION_CI REUNION_RMW REUNION_R34_NE REUNION_R34_SE REUNION_R34_SW REUNION_R34_NW REUNION_R50_NE REUNION_R50_SE REUNION_R50_SW REUNION_R50_NW REUNION_R64_NE REUNION_R64_SE REUNION_R64_SW REUNION_R64_NW BOM_LAT BOM_LON BOM_TYPE BOM_WIND BOM_PRES BOM_TNUM BOM_CI BOM_RMW BOM_R34_NE BOM_R34_SE BOM_R34_SW BOM_R34_NW BOM_R50_NE BOM_R50_SE BOM_R50_SW BOM_R50_NW BOM_R64_NE BOM_R64_SE BOM_R64_SW BOM_R64_NW BOM_ROCI BOM_POCI BOM_EYE BOM_POS_METHOD BOM_PRES_METHOD NADI_LAT NADI_LON NADI_CAT NADI_WIND NADI_PRES WELLINGTON_LAT WELLINGTON_LON WELLINGTON_WIND WELLINGTON_PRES DS824_LAT DS824_LON DS824_STAGE DS824_WIND DS824_PRES TD9636_LAT TD9636_LON TD9636_STAGE TD9636_WIND TD9636_PRES TD9635_LAT TD9635_LON TD9635_WIND TD9635_PRES TD9635_ROCI NEUMANN_LAT NEUMANN_LON NEUMANN_CLASS NEUMANN_WIND NEUMANN_PRES MLC_LAT MLC_LON MLC_CLASS MLC_WIND MLC_PRES USA_GUST BOM_GUST BOM_GUST_PER REUNION_GUST REUNION_GUST_PER USA_SEAHGT USA_SEARAD_NE USA_SEARAD_SE USA_SEARAD_SW USA_SEARAD_NW STORM_SPEED STORM_DIR
1974311S06097 1975 128 SI WA PENNY 1974-11-06 12:00:00 TS -5.80000 97.1000 main 500 500 ____________O_ -1 -5.80000 97.1000 TC 20 1004 4 253
1974311S06097 1975 128 SI WA PENNY 1974-11-06 15:00:00 TS -5.86334 96.8966 25 1004 bom main 520 520 ______O_____P_ -1 -5.90000 96.9000 20 25 1004 1.50000 -5.84502 96.8950 TC 20 1004 4 243
1974311S06097 1975 128 SI WA PENNY 1974-11-06 18:00:00 TS -6.00000 96.7000 25 1004 bom main 540 540 ______O__O__O_ -1 -6.00000 96.7000 20 25 1004 1.50000 -6.00000 96.7000 TC 20 1004 -6.00000 96.7000 TC 20 1004 6 217
1974311S06097 1975 128 SI WA PENNY 1974-11-06 21:00:00 TS -6.32112 96.5523 25 1004 bom main 575 575 ______O__P__P_ -1 -6.30000 96.6000 20 25 1004 1.50000 -6.36502 96.5301 TC 22 1003 -6.31500 96.5276 TC 22 1003 7 206
1974311S06097 1975 128 SI WA PENNY 1974-11-07 00:00:00 TS -6.60000 96.4000 25 1003 bom main 615 615 ______O__O__O_ -1 -6.60000 96.4000 20 25 1003 2.00000 2.00000 -6.60000 96.4000 TC 25 1003 -6.60000 96.4000 TC 25 1003 3 216
1974311S06097 1975 128 SI WA PENNY 1974-11-07 03:00:00 TS -6.58666 96.3567 25 1003 bom main 615 615 ______O__P__P_ -1 -6.50000 96.4000 20 25 1003 2.00000 -6.62999 96.3350 TC 25 1003 -6.62999 96.3350 TC 25 1003 1 270
1974311S06097 1975 128 SI WA PENNY 1974-11-07 06:00:00 TS -6.60000 96.3000 25 1003 bom main 620 620 ______O__O__O_ -1 -6.60000 96.3000 20 25 1003 2.00000 -6.60000 96.3000 TC 25 1003 -6.60000 96.3000 TC 25 1003 1 225
1974311S06097 1975 128 SI WA PENNY 1974-11-07 09:00:00 TS -6.68000 96.2717 25 1003 bom main 630 630 ______O__P__P_ -1 -6.70000 96.3000 20 25 1003 2.00000 -6.67000 96.2575 TC 25 1003 -6.67000 96.2575 TC 25 1003 2 207
1974311S06097 1975 128 SI WA PENNY 1974-11-07 12:00:00 TS -6.80000 96.2000 25 1003 bom main 645 645 ______O__O__O_ -1 -6.80000 96.2000 20 25 1003 2.00000 -6.80000 96.2000 TC 25 1003 -6.80000 96.2000 TC 25 1003 3 210
1974311S06097 1975 128 SI WA PENNY 1974-11-07 15:00:00 TS -6.96166 96.1100 25 1003 bom main 670 670 ______O__P__P_ -1 -6.90000 96.1000 20 25 1003 2.00000 -6.99250 96.1150 TC 25 1003 -6.99250 96.1150 TC 25 1003 4 206
1974311S06097 1975 128 SI WA PENNY 1974-11-07 18:00:00 TS -7.20000 96.0000 25 1003 bom main 695 695 ______O__O__O_ -1 -7.20000 96.0000 20 25 1003 2.00000 -7.20000 96.0000 TC 25 1003 -7.20000 96.0000 TC 25 1003 5 213
1974311S06097 1975 128 SI WA PENNY 1974-11-07 21:00:00 TS -7.33834 95.8617 25 1003 bom main 710 710 ______O__P__P_ -1 -7.30000 95.9000 20 25 1003 2.00000 -7.35751 95.8425 TC 25 1003 -7.35751 95.8425 TC 25 1003 4 225
1974311S06097 1975 128 SI WA PENNY 1974-11-08 00:00:00 TS -7.50000 95.7000 25 1003 bom main 740 740 ______O__O__O_ -1 -7.50000 95.7000 20 25 1003 2.00000 2.00000 -7.50000 95.7000 TC 25 1003 -7.50000 95.7000 TC 25 1003 4 213
1974311S06097 1975 128 SI WA PENNY 1974-11-08 03:00:00 TS -7.66666 95.6517 25 1003 bom main 760 760 ______O__P__P_ -1 -7.70000 95.7000 20 25 1003 2.00000 -7.64999 95.6275 TC 25 1002 -7.64999 95.6275 TC 25 1002 3 197
1974311S06097 1975 128 SI WA PENNY 1974-11-08 06:00:00 TS -7.80000 95.6000 25 1002 bom main 775 775 ______O__O__O_ -1 -7.80000 95.6000 20 25 1002 2.00000 -7.80000 95.6000 TC 25 1002 -7.80000 95.6000 TC 25 1002 3 191
1974311S06097 1975 128 SI WA PENNY 1974-11-08 09:00:00 TS -7.93333 95.6000 25 1001 bom main 785 785 ______O__P__P_ -1 -7.90000 95.6000 20 25 1001 2.00000 -7.95000 95.6000 TC 27 1001 -7.95000 95.6000 TC 27 1001 3 0
1974311S06097 1975 128 SI WA PENNY 1974-11-08 12:00:00 TS -8.10000 95.6000 25 1000 bom main 805 805 ______O__O__O_ -1 -8.10000 95.6000 20 25 1000 2.00000 -8.10000 95.6000 TC 30 1000 -8.10000 95.6000 TC 30 1000 3 189
1974311S06097 1975 128 SI WA PENNY 1974-11-08 15:00:00 TS -8.27166 95.5433 30 998 bom main 830 830 ______O__P__P_ -1 -8.30000 95.5000 20 30 998 2.50000 -8.25750 95.5650 TC 32 998 -8.25750 95.5650 TC 32 998 3 197
1974311S06097 1975 128 SI WA PENNY 1974-11-08 18:00:00 TS -8.40000 95.5000 30 996 bom main 839 839 ______O__O__O_ -1 -8.40000 95.5000 20 30 996 2.50000 -8.40000 95.5000 TC 35 996 -8.40000 95.5000 TC 35 996 3 211
1974311S06097 1975 128 SI WA PENNY 1974-11-08 21:00:00 TS -8.50500 95.4050 35 995 bom main 854 854 ______O__P__P_ -1 -8.50000 95.4000 30 35 995 3.00000 -8.50750 95.4075 TC 37 995 -8.50750 95.4075 TC 37 995 3 225
1974311S06097 1975 128 SI WA PENNY 1974-11-09 00:00:00 TS -8.60000 95.3000 40 994 bom main 869 869 ______O__O__O_ -1 -8.60000 95.3000 30 40 994 3.00000 3.00000 -8.60000 95.3000 TC 40 994 -8.60000 95.3000 TC 40 994 3 226
1974311S06097 1975 128 SI WA PENNY 1974-11-09 03:00:00 TS -8.69499 95.2050 40 993 bom main 884 884 ______O__P__P_ -1 -8.70000 95.2000 30 40 993 3.00000 -8.69249 95.2075 TC 42 992 -8.69249 95.2075 TC 42 992 3 225
1974311S06097 1975 128 SI WA PENNY 1974-11-09 06:00:00 TS -8.80000 95.1000 40 991 bom main 900 900 ______O__O__O_ -1 -8.80000 95.1000 30 40 991 3.00000 -8.80000 95.1000 TC 45 991 -8.80000 95.1000 TC 45 991 3 225
1974311S06097 1975 128 SI WA PENNY 1974-11-09 09:00:00 TS -8.92834 94.9667 45 989 bom main 915 915 ______O__P__P_ -1 -8.90000 95.0000 30 45 989 3.00000 -8.94251 94.9500 TC 47 989 -8.94251 94.9500 TC 47 989 4 224
1974311S06097 1975 128 SI WA PENNY 1974-11-09 12:00:00 TS -9.10000 94.8000 50 988 bom main 945 945 ______O__O__O_ -1 -9.10000 94.8000 30 50 988 3.50000 -9.10000 94.8000 TC 50 988 -9.10000 94.8000 TC 50 988 4 221
1974311S06097 1975 128 SI WA PENNY 1974-11-09 15:00:00 TS -9.23833 94.6950 50 987 bom main 960 960 ______O__P__P_ -1 -9.20000 94.7000 30 50 987 3.50000 -9.25749 94.6925 TC 52 986 -9.25749 94.6925 TC 52 986 4 213
1974311S06097 1975 128 SI WA PENNY 1974-11-09 18:00:00 TS -9.40000 94.6000 50 985 bom main 985 985 ______O__O__O_ -1 -9.40000 94.6000 30 50 985 3.50000 -9.40000 94.6000 TC 55 985 -9.40000 94.6000 TC 55 985 3 214
1974311S06097 1975 128 SI WA PENNY 1974-11-09 21:00:00 TS -9.49497 94.5200 55 983 bom main 1000 1000 ______O__P__P_ -1 -9.50000 94.5000 30 55 983 4.00000 -9.49245 94.5299 TC 57 983 -9.49245 94.5299 TC 57 983 3 225
1974311S06097 1975 128 SI WA PENNY 1974-11-10 00:00:00 TS -9.60000 94.4000 60 981 bom main 1015 1015 ______O__O__O_ -1 -9.60000 94.4000 30 60 981 4.00000 4.00000 -9.60000 94.4000 TC 60 981 -9.60000 94.4000 TC 60 981 5 234
1974311S06097 1975 128 SI WA PENNY 1974-11-10 03:00:00 TS -9.79004 94.1150 60 981 bom main 1051 1051 ______O__P__P_ -1 -9.80000 94.1000 30 60 981 4.00000 -9.78505 94.1226 TC 60 981 -9.78505 94.1226 TC 60 981 7 236
1974311S06097 1975 128 SI WA PENNY 1974-11-10 06:00:00 TS -10.0000 93.8000 60 981 bom main 1087 1087 ______O__O__O_ -1 -10.0000 93.8000 30 60 981 4.00000 -10.0000 93.8000 TC 60 981 -10.0000 93.8000 TC 60 981 7 232
1974311S06097 1975 128 SI WA PENNY 1974-11-10 09:00:00 TS -10.2049 93.5766 60 981 bom main 1118 1118 ______O__P__P_ -1 -10.2000 93.6000 30 60 981 4.00000 -10.2074 93.5649 TC 60 981 -10.2074 93.5649 TC 60 981 6 231
1974311S06097 1975 128 SI WA PENNY 1974-11-10 12:00:00 TS -10.4000 93.3000 60 981 bom main 1154 1154 ______O__O__O_ -1 -10.4000 93.3000 30 60 981 4.00000 -10.4000 93.3000 TC 60 981 -10.4000 93.3000 TC 60 981 7 241
1974311S06097 1975 128 SI WA PENNY 1974-11-10 15:00:00 TS -10.5717 92.9150 60 981 bom main 1197 1197 ______O__P__P_ -1 -10.6000 92.9000 30 60 981 4.00000 -10.5575 92.9225 TC 60 981 -10.5575 92.9225 TC 60 981 8 249
1974311S06097 1975 128 SI WA PENNY 1974-11-10 18:00:00 TS -10.7000 92.5000 60 981 bom main 1231 1231 ______O__O__O_ -1 -10.7000 92.5000 30 60 981 4.00000 -10.7000 92.5000 TC 60 981 -10.7000 92.5000 TC 60 981 8 249
1974311S06097 1975 128 SI WA PENNY 1974-11-10 21:00:00 TS -10.8667 92.1133 60 981 bom main 1275 1275 ______O__P__P_ -1 -10.9000 92.2000 30 60 981 4.00000 -10.8500 92.0700 TC 60 981 -10.8500 92.0700 TC 60 981 8 249
1974311S06097 1975 128 SI WA PENNY 1974-11-11 00:00:00 TS -11.0000 91.7000 60 981 bom main 1310 1310 ______O__O__O_ -1 -11.0000 91.7000 30 60 981 4.00000 4.00000 -11.0000 91.7000 TC 60 981 -11.0000 91.7000 TC 60 981 7 244
1974311S06097 1975 128 SI WA PENNY 1974-11-11 03:00:00 TS -11.1666 91.4999 60 981 bom main 1342 1342 ______O__P__P_ -1 -11.2000 91.5000 30 60 981 4.00000 -11.1498 91.4999 TC 60 981 -11.1498 91.4999 TC 60 981 5 232
1974311S06097 1975 128 SI WA PENNY 1974-11-11 06:00:00 TS -11.3000 91.3000 60 981 bom main 1364 1364 ______O__O__O_ -1 -11.3000 91.3000 30 60 981 4.00000 -11.3000 91.3000 TC 60 981 -11.3000 91.3000 TC 60 981 6 245
1974311S06097 1975 128 SI WA PENNY 1974-11-11 09:00:00 TS -11.4334 90.9100 55 982 bom main 1400 1400 ______O__P__P_ -1 -11.4000 90.9000 30 55 982 4.00000 -11.4501 90.9150 TC 57 983 -11.4501 90.9150 TC 57 983 8 249
1974311S06097 1975 128 SI WA PENNY 1974-11-11 12:00:00 TS -11.6000 90.5000 55 985 bom main 1445 1445 ______O__O__O_ -1 -11.6000 90.5000 30 55 985 4.00000 -11.6000 90.5000 TC 55 985 -11.6000 90.5000 TC 55 985 8 248
1974311S06097 1975 128 SI WA PENNY 1974-11-11 15:00:00 TS -11.7183 90.1949 50 987 bom main 1475 1475 ______O__P__P_ -1 -11.7000 90.2000 30 50 987 3.50000 -11.7274 90.1924 TC 52 986 -11.7274 90.1924 TC 52 986 7 243
1974311S06097 1975 128 SI MM PENNY 1974-11-11 18:00:00 TS -11.9000 89.9000 50 987 bom main 1514 1514 ______O__O__O_ -1 -11.9000 89.9000 30 50 987 3.50000 -11.9000 89.9000 TC 50 987 -11.9000 89.9000 TC 50 987 8 234
1974311S06097 1975 128 SI MM PENNY 1974-11-11 21:00:00 TS -12.1817 89.5468 50 987 bom main 1568 1568 ______O__P__P_ -1 -12.1000 89.6000 30 50 987 3.50000 -12.2226 89.5202 TC 50 987 -12.2226 89.5202 TC 50 987 9 229
1974311S06097 1975 128 SI MM PENNY 1974-11-12 00:00:00 TS -12.5000 89.2000 50 988 bom main 1614 1614 ______O__O__O_ -1 -12.5000 89.2000 30 50 988 3.50000 3.50000 -12.5000 89.2000 TC 50 988 -12.5000 89.2000 TC 50 988 6 233
1974311S06097 1975 128 SI MM PENNY 1974-11-12 03:00:00 TS -12.5249 89.0799 50 988 bom main 1622 1622 ______O__P__P_ -1 -12.5000 89.1000 30 50 988 3.50000 -12.5374 89.0698 TC 50 988 -12.5374 89.0698 TC 50 988 2 270
1974311S06097 1975 128 SI MM PENNY 1974-11-12 06:00:00 TS -12.5000 89.0000 50 988 bom main 1629 1629 ______O__O__O_ -1 -12.5000 89.0000 30 50 988 3.50000 -12.5000 89.0000 TC 50 988 -12.5000 89.0000 TC 50 988 2 269
1974311S06097 1975 128 SI MM PENNY 1974-11-12 09:00:00 TS -12.5283 88.8333 45 990 bom main 1644 1644 ______O__P__P_ -1 -12.5000 88.8000 30 45 990 3.00000 -12.5425 88.8500 TC 45 991 -12.5425 88.8500 TC 45 991 3 251
1974311S06097 1975 128 SI MM PENNY 1974-11-12 12:00:00 TS -12.6000 88.7000 40 994 bom main 1660 1660 ______O__O__O_ -1 -12.6000 88.7000 30 40 994 3.00000 -12.6000 88.7000 TC 40 994 -12.6000 88.7000 TC 40 994 3 246
1974311S06097 1975 128 SI MM PENNY 1974-11-12 15:00:00 TS -12.6333 88.5950 35 996 bom main 1667 1667 ______O__P__P_ -1 -12.6000 88.6000 30 35 996 3.00000 -12.6500 88.5925 TC 37 995 -12.6500 88.5925 TC 37 995 2 243
1974311S06097 1975 128 SI MM PENNY 1974-11-12 18:00:00 TS -12.7000 88.5000 30 997 bom main 1683 1683 ______O__O__O_ -1 -12.7000 88.5000 30 30 997 2.50000 -12.7000 88.5000 TC 35 997 -12.7000 88.5000 TC 35 997 2 242
1974311S06097 1975 128 SI MM PENNY 1974-11-12 21:00:00 TS -12.7233 88.4200 30 998 bom main 1690 1690 ______O__P__P_ -1 -12.7000 88.4000 20 30 998 2.50000 -12.7349 88.4299 TC 32 998 -12.7349 88.4299 TC 32 998 2 243
1974311S06097 1975 128 SI MM PENNY 1974-11-13 00:00:00 TS -12.8000 88.3000 30 999 bom main 1706 1706 ______O__O__O_ -1 -12.8000 88.3000 20 30 999 2.50000 -12.8000 88.3000 TC 30 999 -12.8000 88.3000 TC 30 999 4 238
1974311S06097 1975 128 SI MM PENNY 1974-11-13 03:00:00 TS -12.9567 88.0300 30 999 bom main 1745 1745 ______O__P__P_ -1 -13.0000 88.0000 20 30 999 2.50000 2.50000 -12.9350 88.0450 TC 30 999 -12.9350 88.0450 TC 30 999 7 243
1974311S06097 1975 128 SI MM PENNY 1974-11-13 06:00:00 TS -13.1000 87.7000 30 999 bom main 1775 1775 ______O__O__O_ -1 -13.1000 87.7000 20 30 999 2.50000 -13.1000 87.7000 TC 30 999 -13.1000 87.7000 TC 30 999 7 244
1974311S06097 1975 128 SI MM PENNY 1974-11-13 09:00:00 TS -13.2766 87.3583 30 1000 bom main 1814 1814 ______O__P__P_ -1 -13.3000 87.4000 20 30 1000 2.50000 -13.2649 87.3375 TC 27 1000 -13.2649 87.3375 TC 27 1000 8 249
1974311S06097 1975 128 SI MM PENNY 1974-11-13 12:00:00 TS -13.4000 86.9000 25 1002 bom main 1861 1861 ______O__O__O_ -1 -13.4000 86.9000 20 25 1002 2.00000 -13.4000 86.9000 TC 25 1002 -13.4000 86.9000 TC 25 1002 10 257
1974311S06097 1975 128 SI MM PENNY 1974-11-13 15:00:00 TS -13.4866 86.3867 25 1003 bom main 1908 1908 ______O__P__P_ -1 -13.5000 86.4000 20 25 1003 2.00000 -13.4800 86.3800 TC 25 1002 -13.4800 86.3800 TC 25 1002 11 265
1974311S06097 1975 128 SI MM PENNY 1974-11-13 18:00:00 TS -13.5000 85.8000 25 1002 bom main 1956 1956 ______O__O__O_ -1 -13.5000 85.8000 20 25 1002 2.00000 -13.5000 85.8000 TC 25 1002 -13.5000 85.8000 TC 25 1002 12 270
1974311S06097 1975 128 SI MM PENNY 1974-11-13 21:00:00 TS -13.4768 85.2033 25 1003 bom main 2005 2005 ______O__P__P_ -1 -13.5000 85.3000 20 25 1003 2.00000 -13.4652 85.1549 TC 25 1002 -13.4652 85.1549 TC 25 1002 12 275
1974311S06097 1975 128 SI MM PENNY 1974-11-14 00:00:00 TS -13.4000 84.6000 25 1003 bom main 2048 2048 ______O__O__O_ -1 -13.4000 84.6000 20 25 1003 1.50000 1.50000 -13.4000 84.6000 TC 25 1003 -13.4000 84.6000 TC 25 1003 9 277
1974311S06097 1975 128 SI MM PENNY 1974-11-14 03:00:00 TS -13.3715 84.3367 25 1002 bom main 2074 2074 ______O__P__P_ -1 -13.4000 84.4000 20 25 1002 1.50000 -13.3572 84.3051 TC 27 1002 -13.3572 84.3051 TC 25 1002 5 282
1974311S06097 1975 128 SI MM PENNY 1974-11-14 06:00:00 TS -13.3000 84.1000 25 1001 bom main 2084 2084 ______O__O__O_ -1 -13.3000 84.1000 20 25 1001 1.50000 -13.3000 84.1000 TC 30 1001 -13.3000 84.1000 TC 25 1001 5 288
1974311S06097 1975 128 SI MM PENNY 1974-11-14 09:00:00 TS -13.2050 83.8000 25 1002 bom main 2103 2103 ______O__P__P_ -1 -13.2000 83.8000 20 25 1002 1.50000 -13.2075 83.8000 TC 27 1002 -13.2075 83.8000 TC 25 1002 6 289
1974311S06097 1975 128 SI MM PENNY 1974-11-14 12:00:00 TS -13.1000 83.5000 25 1003 bom main 2123 2123 ______O__O__O_ -1 -13.1000 83.5000 20 25 1003 1.50000 -13.1000 83.5000 TC 25 1003 -13.1000 83.5000 TC 25 1003 6 292
1974311S06097 1975 128 SI MM PENNY 1974-11-14 15:00:00 TS -12.9999 83.2717 25 1003 bom main 2134 2123 ______O__P__P_ -1 -13.0000 83.3000 20 25 1003 1.50000 -12.9999 83.2575 TC 25 1002 -12.9999 83.2575 TC 25 1002 5 292
1974311S06097 1975 128 SI MM PENNY 1974-11-14 18:00:00 TS -12.9000 83.0000 25 1002 bom main 2123 2107 ______O__O__O_ -1 -12.9000 83.0000 20 25 1002 1.50000 -12.9000 83.0000 TC 25 1002 -12.9000 83.0000 TC 25 1002 6 289
1974311S06097 1975 128 SI MM PENNY 1974-11-14 21:00:00 TS -12.7950 82.6716 25 1002 bom main 2107 2092 ______O__P__P_ -1 -12.8000 82.7000 20 25 1002 1.50000 -12.7925 82.6575 TC 25 1002 -12.7925 82.6575 TC 25 1002 7 286
1974311S06097 1975 128 SI MM PENNY 1974-11-15 00:00:00 TS -12.7000 82.3000 25 1003 bom main 2092 2089 ______O__O__O_ -1 -12.7000 82.3000 20 25 1003 1.50000 -12.7000 82.3000 TC 25 1003 -12.7000 82.3000 TC 25 1003 7 282
1974311S06097 1975 128 SI MM PENNY 1974-11-15 03:00:00 TS -12.6567 81.9850 25 1003 bom main 2089 2076 ______O__P__P_ -1 -12.7000 82.0000 20 25 1003 1.50000 -12.6350 81.9775 TC 25 1003 -12.6350 81.9775 TC 25 1003 6 280
1974311S06097 1975 128 SI MM PENNY 1974-11-15 06:00:00 TS -12.6000 81.7000 25 1003 bom main 2076 2075 ______O__O__O_ -1 -12.6000 81.7000 20 25 1003 1.50000 -12.6000 81.7000 TC 25 1003 -12.6000 81.7000 TC 25 1003 5 277
1974311S06097 1975 128 SI MM PENNY 1974-11-15 09:00:00 TS -12.5949 81.5000 25 1004 bom main 2075 2074 ______O__P__P_ -1 -12.6000 81.5000 20 25 1004 1.50000 -12.5924 81.5000 TC 22 1003 -12.5924 81.5000 TC 22 1003 4 270
1974311S06097 1975 128 SI MM PENNY 1974-11-15 12:00:00 TS -12.6000 81.3000 25 1004 bom main 2074 2073 ______O__O__O_ -1 -12.6000 81.3000 20 25 1004 1.50000 -12.6000 81.3000 TC 20 1004 -12.6000 81.3000 TC 20 1004 5 269
1974311S06097 1975 128 SI MM PENNY 1974-11-15 15:00:00 TS -12.6000 81.0150 25 1004 bom main 2073 2072 ______O__P__P_ -1 -12.6000 81.0000 20 25 1004 1.50000 -12.6000 81.0225 TC 20 1004 -12.6000 81.0225 TC 20 1004 6 270
1974311S06097 1975 128 SI MM PENNY 1974-11-15 18:00:00 TS -12.6000 80.7000 25 1005 bom main 2072 2072 ______O__O__O_ -1 -12.6000 80.7000 20 25 1005 1.50000 -12.6000 80.7000 TC 20 1005 -12.6000 80.7000 TC 20 1005 7 270
1974311S06097 1975 128 SI MM PENNY 1974-11-15 21:00:00 TS -12.6001 80.3367 25 1005 bom main 2073 2073 ______O__P__P_ -1 -12.6000 80.3000 20 25 1005 1.50000 -12.6001 80.3550 TC 20 1005 -12.6001 80.3550 TC 20 1005 7 270
1974311S06097 1975 128 SI MM PENNY 1974-11-16 00:00:00 TS -12.6000 80.0000 25 1005 bom main 2073 ______O__O__O_ -1 -12.6000 80.0000 20 25 1005 1.50000 -12.6000 80.0000 TC 20 1005 -12.6000 80.0000 TC 20 1005 7 270

IBTrACS Databaseについて

本データベースは、米国NOAAが公開する1842年以降の世界の熱帯低気圧のベストトラックデータアーカイブInternational Best Track Archive for Climate Stewardship (IBTrACS)を、ウェブで閲覧しやすい形式に変換したものです。

最終更新日:2021-10-27